sensor_id;sensor_type;location;lat;lon;timestamp;temperature;humidity
70051;SHT30;57391;51.306;22.680;2023-04-24T00:01:41;12.66;52.22
70051;SHT30;57391;51.306;22.680;2023-04-24T00:04:09;12.64;52.09
70051;SHT30;57391;51.306;22.680;2023-04-24T00:06:37;12.64;52.00
70051;SHT30;57391;51.306;22.680;2023-04-24T00:09:04;12.65;51.83
70051;SHT30;57391;51.306;22.680;2023-04-24T00:11:32;12.66;51.86
70051;SHT30;57391;51.306;22.680;2023-04-24T00:13:59;12.66;51.79
70051;SHT30;57391;51.306;22.680;2023-04-24T00:16:26;12.67;51.83
70051;SHT30;57391;51.306;22.680;2023-04-24T00:18:54;12.66;51.80
70051;SHT30;57391;51.306;22.680;2023-04-24T00:21:22;12.67;51.96
70051;SHT30;57391;51.306;22.680;2023-04-24T00:23:52;12.65;51.93
70051;SHT30;57391;51.306;22.680;2023-04-24T00:26:19;12.64;51.89
70051;SHT30;57391;51.306;22.680;2023-04-24T00:28:46;12.65;51.99
70051;SHT30;57391;51.306;22.680;2023-04-24T00:31:13;12.65;51.90
70051;SHT30;57391;51.306;22.680;2023-04-24T00:33:41;12.66;52.26
70051;SHT30;57391;51.306;22.680;2023-04-24T00:36:07;12.66;52.55
70051;SHT30;57391;51.306;22.680;2023-04-24T00:38:34;12.64;52.48
70051;SHT30;57391;51.306;22.680;2023-04-24T00:41:01;12.62;52.79
70051;SHT30;57391;51.306;22.680;2023-04-24T00:43:28;12.57;53.11
70051;SHT30;57391;51.306;22.680;2023-04-24T00:45:55;12.52;53.33
70051;SHT30;57391;51.306;22.680;2023-04-24T00:48:23;12.49;53.05
70051;SHT30;57391;51.306;22.680;2023-04-24T00:50:51;12.45;52.64
70051;SHT30;57391;51.306;22.680;2023-04-24T00:53:19;12.44;52.65
70051;SHT30;57391;51.306;22.680;2023-04-24T00:55:46;12.43;52.60
70051;SHT30;57391;51.306;22.680;2023-04-24T00:58:13;12.40;52.68
70051;SHT30;57391;51.306;22.680;2023-04-24T01:00:41;12.39;52.64
70051;SHT30;57391;51.306;22.680;2023-04-24T01:03:08;12.38;52.71
70051;SHT30;57391;51.306;22.680;2023-04-24T01:05:35;12.36;52.87
70051;SHT30;57391;51.306;22.680;2023-04-24T01:08:03;12.27;53.30
70051;SHT30;57391;51.306;22.680;2023-04-24T01:10:31;12.23;53.39
70051;SHT30;57391;51.306;22.680;2023-04-24T01:13:00;12.13;53.68
70051;SHT30;57391;51.306;22.680;2023-04-24T01:15:27;12.00;54.09
70051;SHT30;57391;51.306;22.680;2023-04-24T01:17:54;11.85;54.52
70051;SHT30;57391;51.306;22.680;2023-04-24T01:20:22;11.74;54.92
70051;SHT30;57391;51.306;22.680;2023-04-24T01:22:54;11.61;55.31
70051;SHT30;57391;51.306;22.680;2023-04-24T01:25:24;11.50;55.64
70051;SHT30;57391;51.306;22.680;2023-04-24T01:27:57;11.40;56.02
70051;SHT30;57391;51.306;22.680;2023-04-24T01:30:24;11.27;56.58
70051;SHT30;57391;51.306;22.680;2023-04-24T01:32:55;11.20;56.95
70051;SHT30;57391;51.306;22.680;2023-04-24T01:35:22;11.13;57.13
70051;SHT30;57391;51.306;22.680;2023-04-24T01:37:49;11.05;57.48
70051;SHT30;57391;51.306;22.680;2023-04-24T01:40:17;10.98;57.78
70051;SHT30;57391;51.306;22.680;2023-04-24T01:42:44;10.91;58.00
70051;SHT30;57391;51.306;22.680;2023-04-24T01:45:12;10.83;58.26
70051;SHT30;57391;51.306;22.680;2023-04-24T01:47:39;10.76;58.54
70051;SHT30;57391;51.306;22.680;2023-04-24T01:50:07;10.70;58.74
70051;SHT30;57391;51.306;22.680;2023-04-24T01:52:35;10.65;58.94
70051;SHT30;57391;51.306;22.680;2023-04-24T01:55:03;10.59;59.15
70051;SHT30;57391;51.306;22.680;2023-04-24T01:57:31;10.55;59.31
70051;SHT30;57391;51.306;22.680;2023-04-24T02:00:00;10.52;59.37
70051;SHT30;57391;51.306;22.680;2023-04-24T02:02:39;10.49;59.45
70051;SHT30;57391;51.306;22.680;2023-04-24T02:05:07;10.48;59.62
70051;SHT30;57391;51.306;22.680;2023-04-24T02:07:38;10.45;59.78
70051;SHT30;57391;51.306;22.680;2023-04-24T02:10:06;10.42;59.94
70051;SHT30;57391;51.306;22.680;2023-04-24T02:12:34;10.37;60.13
70051;SHT30;57391;51.306;22.680;2023-04-24T02:15:01;10.33;60.29
70051;SHT30;57391;51.306;22.680;2023-04-24T02:17:29;10.27;60.53
70051;SHT30;57391;51.306;22.680;2023-04-24T02:19:57;10.23;60.71
70051;SHT30;57391;51.306;22.680;2023-04-24T02:22:24;10.17;60.82
70051;SHT30;57391;51.306;22.680;2023-04-24T02:24:51;10.12;60.95
70051;SHT30;57391;51.306;22.680;2023-04-24T02:27:18;10.07;61.17
70051;SHT30;57391;51.306;22.680;2023-04-24T02:29:45;10.02;61.36
70051;SHT30;57391;51.306;22.680;2023-04-24T02:32:12;9.97;61.54
70051;SHT30;57391;51.306;22.680;2023-04-24T02:34:43;9.93;61.73
70051;SHT30;57391;51.306;22.680;2023-04-24T02:37:10;9.89;61.87
70051;SHT30;57391;51.306;22.680;2023-04-24T02:39:37;9.84;62.04
70051;SHT30;57391;51.306;22.680;2023-04-24T02:42:04;9.79;62.22
70051;SHT30;57391;51.306;22.680;2023-04-24T02:44:31;9.75;62.40
70051;SHT30;57391;51.306;22.680;2023-04-24T02:46:58;9.70;62.66
70051;SHT30;57391;51.306;22.680;2023-04-24T02:49:25;9.63;62.88
70051;SHT30;57391;51.306;22.680;2023-04-24T02:51:54;9.57;63.19
70051;SHT30;57391;51.306;22.680;2023-04-24T02:54:21;9.48;63.42
70051;SHT30;57391;51.306;22.680;2023-04-24T02:56:48;9.44;63.63
70051;SHT30;57391;51.306;22.680;2023-04-24T02:59:15;9.41;63.77
70051;SHT30;57391;51.306;22.680;2023-04-24T03:01:42;9.38;63.82
70051;SHT30;57391;51.306;22.680;2023-04-24T03:04:09;9.36;63.83
70051;SHT30;57391;51.306;22.680;2023-04-24T03:06:36;9.36;63.88
70051;SHT30;57391;51.306;22.680;2023-04-24T03:09:04;9.36;63.87
70051;SHT30;57391;51.306;22.680;2023-04-24T03:11:32;9.37;63.93
70051;SHT30;57391;51.306;22.680;2023-04-24T03:13:59;9.36;64.04
70051;SHT30;57391;51.306;22.680;2023-04-24T03:16:26;9.34;64.19
70051;SHT30;57391;51.306;22.680;2023-04-24T03:18:55;9.35;64.00
70051;SHT30;57391;51.306;22.680;2023-04-24T03:21:23;9.36;64.02
70051;SHT30;57391;51.306;22.680;2023-04-24T03:23:50;9.37;64.06
70051;SHT30;57391;51.306;22.680;2023-04-24T03:26:17;9.36;64.12
70051;SHT30;57391;51.306;22.680;2023-04-24T03:28:54;9.35;64.24
70051;SHT30;57391;51.306;22.680;2023-04-24T03:31:22;9.34;64.37
70051;SHT30;57391;51.306;22.680;2023-04-24T03:33:50;9.32;64.58
70051;SHT30;57391;51.306;22.680;2023-04-24T03:36:17;9.31;64.90
70051;SHT30;57391;51.306;22.680;2023-04-24T03:38:45;9.31;65.17
70051;SHT30;57391;51.306;22.680;2023-04-24T03:41:24;9.31;65.33
70051;SHT30;57391;51.306;22.680;2023-04-24T03:43:56;9.33;65.45
70051;SHT30;57391;51.306;22.680;2023-04-24T03:46:23;9.36;65.50
70051;SHT30;57391;51.306;22.680;2023-04-24T03:48:53;9.42;65.47
70051;SHT30;57391;51.306;22.680;2023-04-24T03:51:23;9.69;65.36
70051;SHT30;57391;51.306;22.680;2023-04-24T03:53:53;10.21;64.49
70051;SHT30;57391;51.306;22.680;2023-04-24T03:56:21;10.83;63.37
70051;SHT30;57391;51.306;22.680;2023-04-24T03:58:48;11.41;62.00
70051;SHT30;57391;51.306;22.680;2023-04-24T04:01:15;11.60;61.14
70051;SHT30;57391;51.306;22.680;2023-04-24T04:03:53;11.54;61.02
70051;SHT30;57391;51.306;22.680;2023-04-24T04:06:23;11.33;61.17
70051;SHT30;57391;51.306;22.680;2023-04-24T04:08:52;11.12;61.54
70051;SHT30;57391;51.306;22.680;2023-04-24T04:11:19;10.95;62.14
70051;SHT30;57391;51.306;22.680;2023-04-24T04:13:46;10.77;62.68
70051;SHT30;57391;51.306;22.680;2023-04-24T04:16:16;10.75;63.07
70051;SHT30;57391;51.306;22.680;2023-04-24T04:18:46;10.69;63.52
70051;SHT30;57391;51.306;22.680;2023-04-24T04:21:14;10.81;63.49
70051;SHT30;57391;51.306;22.680;2023-04-24T04:23:42;11.16;62.74
70051;SHT30;57391;51.306;22.680;2023-04-24T04:26:23;11.09;62.51
70051;SHT30;57391;51.306;22.680;2023-04-24T04:29:21;10.98;62.64
70051;SHT30;57391;51.306;22.680;2023-04-24T04:31:49;11.00;62.67
70051;SHT30;57391;51.306;22.680;2023-04-24T04:34:17;11.11;62.56
70051;SHT30;57391;51.306;22.680;2023-04-24T04:36:44;11.03;62.55
70051;SHT30;57391;51.306;22.680;2023-04-24T04:39:41;11.35;61.87
70051;SHT30;57391;51.306;22.680;2023-04-24T04:42:13;12.01;61.01
70051;SHT30;57391;51.306;22.680;2023-04-24T04:44:41;12.14;60.34
70051;SHT30;57391;51.306;22.680;2023-04-24T04:47:12;11.95;60.51
70051;SHT30;57391;51.306;22.680;2023-04-24T04:49:40;12.47;59.76
70051;SHT30;57391;51.306;22.680;2023-04-24T04:52:13;12.59;59.05
70051;SHT30;57391;51.306;22.680;2023-04-24T04:54:40;12.33;59.36
70051;SHT30;57391;51.306;22.680;2023-04-24T04:57:07;12.18;59.75
70051;SHT30;57391;51.306;22.680;2023-04-24T04:59:34;12.11;59.86
70051;SHT30;57391;51.306;22.680;2023-04-24T05:02:05;11.96;60.09
70051;SHT30;57391;51.306;22.680;2023-04-24T05:04:32;12.03;59.98
70051;SHT30;57391;51.306;22.680;2023-04-24T05:06:59;12.61;59.24
70051;SHT30;57391;51.306;22.680;2023-04-24T05:09:27;13.52;57.74
70051;SHT30;57391;51.306;22.680;2023-04-24T05:12:00;13.96;56.22
70051;SHT30;57391;51.306;22.680;2023-04-24T05:14:30;13.83;55.74
70051;SHT30;57391;51.306;22.680;2023-04-24T05:16:58;13.63;55.80
70051;SHT30;57391;51.306;22.680;2023-04-24T05:19:26;13.48;56.00
70051;SHT30;57391;51.306;22.680;2023-04-24T05:21:54;13.34;55.98
70051;SHT30;57391;51.306;22.680;2023-04-24T05:24:22;13.31;56.15
70051;SHT30;57391;51.306;22.680;2023-04-24T05:27:09;13.32;56.28
70051;SHT30;57391;51.306;22.680;2023-04-24T05:29:39;13.36;56.28
70051;SHT30;57391;51.306;22.680;2023-04-24T05:32:06;13.44;56.33
70051;SHT30;57391;51.306;22.680;2023-04-24T05:34:35;13.51;56.12
70051;SHT30;57391;51.306;22.680;2023-04-24T05:37:03;13.56;55.91
70051;SHT30;57391;51.306;22.680;2023-04-24T05:39:34;13.68;56.20
70051;SHT30;57391;51.306;22.680;2023-04-24T05:42:02;13.79;55.63
70051;SHT30;57391;51.306;22.680;2023-04-24T05:44:30;13.86;55.27
70051;SHT30;57391;51.306;22.680;2023-04-24T05:46:57;13.95;54.84
70051;SHT30;57391;51.306;22.680;2023-04-24T05:49:25;14.07;54.26
70051;SHT30;57391;51.306;22.680;2023-04-24T05:51:52;14.19;54.21
70051;SHT30;57391;51.306;22.680;2023-04-24T05:54:19;14.32;54.22
70051;SHT30;57391;51.306;22.680;2023-04-24T05:56:46;14.48;53.87
70051;SHT30;57391;51.306;22.680;2023-04-24T05:59:18;14.64;53.72
70051;SHT30;57391;51.306;22.680;2023-04-24T06:01:46;14.81;53.73
70051;SHT30;57391;51.306;22.680;2023-04-24T06:04:18;14.98;53.35
70051;SHT30;57391;51.306;22.680;2023-04-24T06:06:45;15.14;52.11
70051;SHT30;57391;51.306;22.680;2023-04-24T06:09:13;15.23;51.80
70051;SHT30;57391;51.306;22.680;2023-04-24T06:11:40;15.33;52.05
70051;SHT30;57391;51.306;22.680;2023-04-24T06:14:09;15.43;52.21
70051;SHT30;57391;51.306;22.680;2023-04-24T06:16:40;15.53;51.69
70051;SHT30;57391;51.306;22.680;2023-04-24T06:19:16;15.65;51.74
70051;SHT30;57391;51.306;22.680;2023-04-24T06:21:44;15.75;51.44
70051;SHT30;57391;51.306;22.680;2023-04-24T06:24:13;15.83;50.91
70051;SHT30;57391;51.306;22.680;2023-04-24T06:26:42;15.86;51.12
70051;SHT30;57391;51.306;22.680;2023-04-24T06:29:09;15.92;51.30
70051;SHT30;57391;51.306;22.680;2023-04-24T06:31:36;15.99;51.67
70051;SHT30;57391;51.306;22.680;2023-04-24T06:34:03;16.08;51.40
70051;SHT30;57391;51.306;22.680;2023-04-24T06:36:31;16.17;51.30
70051;SHT30;57391;51.306;22.680;2023-04-24T06:39:01;16.26;51.19
70051;SHT30;57391;51.306;22.680;2023-04-24T06:41:28;16.36;50.96
70051;SHT30;57391;51.306;22.680;2023-04-24T06:43:56;16.48;50.94
70051;SHT30;57391;51.306;22.680;2023-04-24T06:46:23;16.60;50.71
70051;SHT30;57391;51.306;22.680;2023-04-24T06:48:53;16.68;50.13
70051;SHT30;57391;51.306;22.680;2023-04-24T06:51:23;16.77;50.11
70051;SHT30;57391;51.306;22.680;2023-04-24T06:53:52;16.85;49.33
70051;SHT30;57391;51.306;22.680;2023-04-24T06:56:20;16.93;48.82
70051;SHT30;57391;51.306;22.680;2023-04-24T06:58:47;17.04;49.11
70051;SHT30;57391;51.306;22.680;2023-04-24T07:01:15;17.17;48.68
70051;SHT30;57391;51.306;22.680;2023-04-24T07:03:43;17.28;48.48
70051;SHT30;57391;51.306;22.680;2023-04-24T07:06:10;17.41;48.21
70051;SHT30;57391;51.306;22.680;2023-04-24T07:08:37;17.50;47.00
70051;SHT30;57391;51.306;22.680;2023-04-24T07:11:05;17.54;46.86
70051;SHT30;57391;51.306;22.680;2023-04-24T07:13:33;17.64;46.58
70051;SHT30;57391;51.306;22.680;2023-04-24T07:16:02;17.74;46.32
70051;SHT30;57391;51.306;22.680;2023-04-24T07:18:29;17.85;46.18
70051;SHT30;57391;51.306;22.680;2023-04-24T07:20:56;17.96;46.49
70051;SHT30;57391;51.306;22.680;2023-04-24T07:23:24;18.11;45.98
70051;SHT30;57391;51.306;22.680;2023-04-24T07:25:52;18.24;45.24
70051;SHT30;57391;51.306;22.680;2023-04-24T07:28:19;18.37;45.34
70051;SHT30;57391;51.306;22.680;2023-04-24T07:30:47;18.51;44.58
70051;SHT30;57391;51.306;22.680;2023-04-24T07:33:14;18.61;44.16
70051;SHT30;57391;51.306;22.680;2023-04-24T07:35:42;18.69;43.51
70051;SHT30;57391;51.306;22.680;2023-04-24T07:38:09;18.73;43.36
70051;SHT30;57391;51.306;22.680;2023-04-24T07:40:36;18.80;43.54
70051;SHT30;57391;51.306;22.680;2023-04-24T07:43:03;18.86;43.45
70051;SHT30;57391;51.306;22.680;2023-04-24T07:45:29;18.90;44.01
70051;SHT30;57391;51.306;22.680;2023-04-24T07:47:57;18.97;43.74
70051;SHT30;57391;51.306;22.680;2023-04-24T07:50:24;19.10;42.83
70051;SHT30;57391;51.306;22.680;2023-04-24T07:52:51;19.17;42.01
70051;SHT30;57391;51.306;22.680;2023-04-24T07:55:18;19.26;42.30
70051;SHT30;57391;51.306;22.680;2023-04-24T07:57:45;19.39;41.98
70051;SHT30;57391;51.306;22.680;2023-04-24T08:00:13;19.47;41.96
70051;SHT30;57391;51.306;22.680;2023-04-24T08:02:41;19.60;42.60
70051;SHT30;57391;51.306;22.680;2023-04-24T08:05:08;19.77;41.37
70051;SHT30;57391;51.306;22.680;2023-04-24T08:07:35;19.91;41.59
70051;SHT30;57391;51.306;22.680;2023-04-24T08:10:03;20.09;41.30
70051;SHT30;57391;51.306;22.680;2023-04-24T08:12:31;20.26;41.56
70051;SHT30;57391;51.306;22.680;2023-04-24T08:14:58;20.44;40.82
70051;SHT30;57391;51.306;22.680;2023-04-24T08:17:24;20.60;41.02
70051;SHT30;57391;51.306;22.680;2023-04-24T08:19:52;20.78;41.23
70051;SHT30;57391;51.306;22.680;2023-04-24T08:22:25;20.98;40.63
70051;SHT30;57391;51.306;22.680;2023-04-24T08:24:52;21.24;40.24
70051;SHT30;57391;51.306;22.680;2023-04-24T08:27:20;21.48;40.24
70051;SHT30;57391;51.306;22.680;2023-04-24T08:29:47;21.65;39.88
70051;SHT30;57391;51.306;22.680;2023-04-24T08:32:14;21.76;38.82
70051;SHT30;57391;51.306;22.680;2023-04-24T08:34:41;21.81;38.80
70051;SHT30;57391;51.306;22.680;2023-04-24T08:37:09;21.91;39.22
70051;SHT30;57391;51.306;22.680;2023-04-24T08:39:36;22.05;38.89
70051;SHT30;57391;51.306;22.680;2023-04-24T08:42:04;22.10;38.61
70051;SHT30;57391;51.306;22.680;2023-04-24T08:44:34;22.16;38.12
70051;SHT30;57391;51.306;22.680;2023-04-24T08:47:03;22.21;37.45
70051;SHT30;57391;51.306;22.680;2023-04-24T08:49:31;22.25;37.43
70051;SHT30;57391;51.306;22.680;2023-04-24T08:51:58;22.20;37.44
70051;SHT30;57391;51.306;22.680;2023-04-24T08:54:26;22.17;37.99
70051;SHT30;57391;51.306;22.680;2023-04-24T08:56:53;22.18;38.17
70051;SHT30;57391;51.306;22.680;2023-04-24T08:59:27;22.15;37.35
70051;SHT30;57391;51.306;22.680;2023-04-24T09:01:55;22.14;37.22
70051;SHT30;57391;51.306;22.680;2023-04-24T09:04:23;22.17;37.91
70051;SHT30;57391;51.306;22.680;2023-04-24T09:06:55;22.26;38.66
70051;SHT30;57391;51.306;22.680;2023-04-24T09:09:25;22.37;38.83
70051;SHT30;57391;51.306;22.680;2023-04-24T09:11:52;22.50;37.83
70051;SHT30;57391;51.306;22.680;2023-04-24T09:14:23;22.60;38.28
70051;SHT30;57391;51.306;22.680;2023-04-24T09:16:51;22.61;37.55
70051;SHT30;57391;51.306;22.680;2023-04-24T09:19:18;22.59;37.71
70051;SHT30;57391;51.306;22.680;2023-04-24T09:21:45;22.55;37.67
70051;SHT30;57391;51.306;22.680;2023-04-24T09:24:17;22.56;38.38
70051;SHT30;57391;51.306;22.680;2023-04-24T09:26:55;22.54;37.77
70051;SHT30;57391;51.306;22.680;2023-04-24T09:29:30;22.53;38.30
70051;SHT30;57391;51.306;22.680;2023-04-24T09:31:59;22.67;39.08
70051;SHT30;57391;51.306;22.680;2023-04-24T09:34:47;22.79;37.56
70051;SHT30;57391;51.306;22.680;2023-04-24T09:37:27;22.75;36.95
70051;SHT30;57391;51.306;22.680;2023-04-24T09:40:09;22.79;37.66
70051;SHT30;57391;51.306;22.680;2023-04-24T09:42:52;22.90;36.00
70051;SHT30;57391;51.306;22.680;2023-04-24T09:45:22;23.00;35.98
70051;SHT30;57391;51.306;22.680;2023-04-24T09:47:55;23.08;36.62
70051;SHT30;57391;51.306;22.680;2023-04-24T09:50:22;23.12;36.56
70051;SHT30;57391;51.306;22.680;2023-04-24T09:52:56;23.21;36.51
70051;SHT30;57391;51.306;22.680;2023-04-24T09:55:29;23.29;35.82
70051;SHT30;57391;51.306;22.680;2023-04-24T09:57:57;23.35;36.08
70051;SHT30;57391;51.306;22.680;2023-04-24T10:00:28;23.33;35.37
70051;SHT30;57391;51.306;22.680;2023-04-24T10:03:00;23.37;33.96
70051;SHT30;57391;51.306;22.680;2023-04-24T10:05:35;23.43;34.80
70051;SHT30;57391;51.306;22.680;2023-04-24T10:10:37;23.59;34.23
70051;SHT30;57391;51.306;22.680;2023-04-24T10:13:08;23.73;35.16
70051;SHT30;57391;51.306;22.680;2023-04-24T10:15:37;23.82;34.50
70051;SHT30;57391;51.306;22.680;2023-04-24T10:18:07;23.81;34.43
70051;SHT30;57391;51.306;22.680;2023-04-24T10:20:37;23.88;34.06
70051;SHT30;57391;51.306;22.680;2023-04-24T10:23:06;23.85;33.68
70051;SHT30;57391;51.306;22.680;2023-04-24T10:25:35;23.89;33.29
70051;SHT30;57391;51.306;22.680;2023-04-24T10:28:03;23.92;32.84
70051;SHT30;57391;51.306;22.680;2023-04-24T10:30:32;23.92;32.88
70051;SHT30;57391;51.306;22.680;2023-04-24T10:33:04;23.99;33.61
70051;SHT30;57391;51.306;22.680;2023-04-24T10:35:35;24.09;32.38
70051;SHT30;57391;51.306;22.680;2023-04-24T10:38:14;24.12;32.02
70051;SHT30;57391;51.306;22.680;2023-04-24T10:40:51;24.09;30.75
70051;SHT30;57391;51.306;22.680;2023-04-24T10:43:18;24.02;30.99
70051;SHT30;57391;51.306;22.680;2023-04-24T10:46:04;24.01;30.97
70051;SHT30;57391;51.306;22.680;2023-04-24T10:48:33;24.06;31.89
70051;SHT30;57391;51.306;22.680;2023-04-24T10:51:00;24.06;30.73
70051;SHT30;57391;51.306;22.680;2023-04-24T10:53:29;23.99;30.07
70051;SHT30;57391;51.306;22.680;2023-04-24T10:58:40;23.80;29.87
70051;SHT30;57391;51.306;22.680;2023-04-24T11:01:26;23.66;30.27
70051;SHT30;57391;51.306;22.680;2023-04-24T11:04:00;23.68;30.85
70051;SHT30;57391;51.306;22.680;2023-04-24T11:06:33;23.74;31.03
70051;SHT30;57391;51.306;22.680;2023-04-24T11:09:09;23.73;30.87
70051;SHT30;57391;51.306;22.680;2023-04-24T11:11:46;23.78;31.05
70051;SHT30;57391;51.306;22.680;2023-04-24T11:14:14;23.79;30.76
70051;SHT30;57391;51.306;22.680;2023-04-24T11:17:00;23.77;30.79
70051;SHT30;57391;51.306;22.680;2023-04-24T11:19:27;23.61;31.27
70051;SHT30;57391;51.306;22.680;2023-04-24T11:24:27;23.41;31.60
70051;SHT30;57391;51.306;22.680;2023-04-24T11:27:03;23.32;31.85
70051;SHT30;57391;51.306;22.680;2023-04-24T11:35:01;23.44;31.74
70051;SHT30;57391;51.306;22.680;2023-04-24T11:40:10;23.48;30.46
70051;SHT30;57391;51.306;22.680;2023-04-24T11:42:45;23.17;30.80
70051;SHT30;57391;51.306;22.680;2023-04-24T11:45:15;22.97;31.91
70051;SHT30;57391;51.306;22.680;2023-04-24T11:47:44;22.85;31.55
70051;SHT30;57391;51.306;22.680;2023-04-24T11:50:12;22.86;31.92
70051;SHT30;57391;51.306;22.680;2023-04-24T11:52:42;23.02;31.76
70051;SHT30;57391;51.306;22.680;2023-04-24T11:57:43;22.92;30.00
70051;SHT30;57391;51.306;22.680;2023-04-24T12:00:15;22.83;30.55
70051;SHT30;57391;51.306;22.680;2023-04-24T12:02:45;22.76;30.67
70051;SHT30;57391;51.306;22.680;2023-04-24T12:05:23;22.69;31.42
70051;SHT30;57391;51.306;22.680;2023-04-24T12:07:52;22.75;31.21
70051;SHT30;57391;51.306;22.680;2023-04-24T12:10:23;22.84;30.88
70051;SHT30;57391;51.306;22.680;2023-04-24T12:12:52;23.01;31.39
70051;SHT30;57391;51.306;22.680;2023-04-24T12:15:21;23.18;31.17
70051;SHT30;57391;51.306;22.680;2023-04-24T12:17:50;23.30;31.08
70051;SHT30;57391;51.306;22.680;2023-04-24T12:20:29;23.23;30.52
70051;SHT30;57391;51.306;22.680;2023-04-24T12:22:59;23.03;29.87
70051;SHT30;57391;51.306;22.680;2023-04-24T12:25:28;22.86;30.35
70051;SHT30;57391;51.306;22.680;2023-04-24T12:30:31;22.90;30.48
70051;SHT30;57391;51.306;22.680;2023-04-24T12:33:01;22.97;30.87
70051;SHT30;57391;51.306;22.680;2023-04-24T12:35:30;23.02;30.22
70051;SHT30;57391;51.306;22.680;2023-04-24T12:38:06;23.11;30.32
70051;SHT30;57391;51.306;22.680;2023-04-24T12:40:38;23.09;31.07
70051;SHT30;57391;51.306;22.680;2023-04-24T12:43:14;23.03;32.08
70051;SHT30;57391;51.306;22.680;2023-04-24T12:45:44;23.04;31.32
70051;SHT30;57391;51.306;22.680;2023-04-24T12:48:12;23.00;31.65
70051;SHT30;57391;51.306;22.680;2023-04-24T12:50:40;22.99;31.67
70051;SHT30;57391;51.306;22.680;2023-04-24T12:53:08;23.00;32.67
70051;SHT30;57391;51.306;22.680;2023-04-24T12:55:36;23.01;32.37
70051;SHT30;57391;51.306;22.680;2023-04-24T12:58:04;23.07;32.68
70051;SHT30;57391;51.306;22.680;2023-04-24T13:00:31;23.10;32.44
70051;SHT30;57391;51.306;22.680;2023-04-24T13:02:58;23.00;32.14
70051;SHT30;57391;51.306;22.680;2023-04-24T13:05:26;22.90;32.96
70051;SHT30;57391;51.306;22.680;2023-04-24T13:07:53;22.81;32.50
70051;SHT30;57391;51.306;22.680;2023-04-24T13:10:20;22.78;33.66
70051;SHT30;57391;51.306;22.680;2023-04-24T13:12:47;22.85;33.47
70051;SHT30;57391;51.306;22.680;2023-04-24T13:15:14;22.87;31.56
70051;SHT30;57391;51.306;22.680;2023-04-24T13:17:41;22.90;30.96
70051;SHT30;57391;51.306;22.680;2023-04-24T13:20:08;23.02;31.53
70051;SHT30;57391;51.306;22.680;2023-04-24T13:22:36;23.13;31.78
70051;SHT30;57391;51.306;22.680;2023-04-24T13:25:04;23.22;31.33
70051;SHT30;57391;51.306;22.680;2023-04-24T13:27:33;23.32;31.78
70051;SHT30;57391;51.306;22.680;2023-04-24T13:29:59;23.40;31.89
70051;SHT30;57391;51.306;22.680;2023-04-24T13:32:26;23.46;30.28
70051;SHT30;57391;51.306;22.680;2023-04-24T13:34:55;23.51;29.76
70051;SHT30;57391;51.306;22.680;2023-04-24T13:37:23;23.58;30.02
70051;SHT30;57391;51.306;22.680;2023-04-24T13:39:50;23.64;30.33
70051;SHT30;57391;51.306;22.680;2023-04-24T13:42:17;23.68;30.01
70051;SHT30;57391;51.306;22.680;2023-04-24T13:44:45;23.74;30.89
70051;SHT30;57391;51.306;22.680;2023-04-24T13:47:12;23.80;30.25
70051;SHT30;57391;51.306;22.680;2023-04-24T13:49:39;23.82;29.81
70051;SHT30;57391;51.306;22.680;2023-04-24T13:52:06;23.88;30.07
70051;SHT30;57391;51.306;22.680;2023-04-24T13:54:35;23.83;29.14
70051;SHT30;57391;51.306;22.680;2023-04-24T13:57:08;23.72;29.09
70051;SHT30;57391;51.306;22.680;2023-04-24T13:59:35;23.67;29.30
70051;SHT30;57391;51.306;22.680;2023-04-24T14:02:03;23.59;28.66
70051;SHT30;57391;51.306;22.680;2023-04-24T14:04:31;23.51;28.85
70051;SHT30;57391;51.306;22.680;2023-04-24T14:06:58;23.43;29.16
70051;SHT30;57391;51.306;22.680;2023-04-24T14:09:25;23.39;30.00
70051;SHT30;57391;51.306;22.680;2023-04-24T14:11:53;23.30;30.45
70051;SHT30;57391;51.306;22.680;2023-04-24T14:14:20;23.17;30.83
70051;SHT30;57391;51.306;22.680;2023-04-24T14:16:47;22.99;31.04
70051;SHT30;57391;51.306;22.680;2023-04-24T14:19:15;22.90;31.30
70051;SHT30;57391;51.306;22.680;2023-04-24T14:21:42;22.86;31.32
70051;SHT30;57391;51.306;22.680;2023-04-24T14:24:09;22.83;31.27
70051;SHT30;57391;51.306;22.680;2023-04-24T14:26:37;22.82;32.15
70051;SHT30;57391;51.306;22.680;2023-04-24T14:29:04;22.81;31.26
70051;SHT30;57391;51.306;22.680;2023-04-24T14:31:32;22.78;31.14
70051;SHT30;57391;51.306;22.680;2023-04-24T14:34:00;22.73;30.47
70051;SHT30;57391;51.306;22.680;2023-04-24T14:36:27;22.69;30.33
70051;SHT30;57391;51.306;22.680;2023-04-24T14:38:54;22.65;30.74
70051;SHT30;57391;51.306;22.680;2023-04-24T14:41:21;22.65;31.40
70051;SHT30;57391;51.306;22.680;2023-04-24T14:43:48;22.62;31.74
70051;SHT30;57391;51.306;22.680;2023-04-24T14:46:16;22.58;31.42
70051;SHT30;57391;51.306;22.680;2023-04-24T14:48:42;22.50;31.07
70051;SHT30;57391;51.306;22.680;2023-04-24T14:51:10;22.38;31.49
70051;SHT30;57391;51.306;22.680;2023-04-24T14:53:37;22.24;31.70
70051;SHT30;57391;51.306;22.680;2023-04-24T14:56:04;22.06;32.55
70051;SHT30;57391;51.306;22.680;2023-04-24T14:58:32;21.88;32.98
70051;SHT30;57391;51.306;22.680;2023-04-24T15:00:59;21.72;33.24
70051;SHT30;57391;51.306;22.680;2023-04-24T15:03:26;21.62;33.79
70051;SHT30;57391;51.306;22.680;2023-04-24T15:05:54;21.54;34.32
70051;SHT30;57391;51.306;22.680;2023-04-24T15:08:21;21.48;33.50
70051;SHT30;57391;51.306;22.680;2023-04-24T15:10:48;21.42;33.27
70051;SHT30;57391;51.306;22.680;2023-04-24T15:13:15;21.38;33.44
70051;SHT30;57391;51.306;22.680;2023-04-24T15:15:43;21.36;33.80
70051;SHT30;57391;51.306;22.680;2023-04-24T15:18:10;21.36;33.81
70051;SHT30;57391;51.306;22.680;2023-04-24T15:20:38;21.33;33.64
70051;SHT30;57391;51.306;22.680;2023-04-24T15:23:05;21.31;33.53
70051;SHT30;57391;51.306;22.680;2023-04-24T15:25:37;21.27;33.35
70051;SHT30;57391;51.306;22.680;2023-04-24T15:28:05;21.25;34.14
70051;SHT30;57391;51.306;22.680;2023-04-24T15:30:33;21.25;34.13
70051;SHT30;57391;51.306;22.680;2023-04-24T15:33:00;21.23;33.61
70051;SHT30;57391;51.306;22.680;2023-04-24T15:35:28;21.18;33.05
70051;SHT30;57391;51.306;22.680;2023-04-24T15:37:55;21.13;32.60
70051;SHT30;57391;51.306;22.680;2023-04-24T15:40:22;21.11;32.75
70051;SHT30;57391;51.306;22.680;2023-04-24T15:42:50;21.08;33.04
70051;SHT30;57391;51.306;22.680;2023-04-24T15:45:17;21.04;33.08
70051;SHT30;57391;51.306;22.680;2023-04-24T15:47:44;21.03;33.48
70051;SHT30;57391;51.306;22.680;2023-04-24T15:50:16;21.00;33.11